Everhartville, Pennsylvania
Current Conditions -  °F | °C
As of 3:56 AM on Sunday 26 Oct 2014 (Local Time) from KCXY Reporting Station
Clear Clear  
Wind Chill: 60°   Ceiling: Unl
Heat Index: 60°   Visibility: 10mi
Dew Point: 35°   Wind: 15mph
Humidity: 39%   Direction: 310°NW
Pressure: 29.66"   Gusts: 21mph
Location:  40.4932°N, 77.217°W
Report Text: KCXY 260756Z AUTO 31013G18KT 10SM CLR 16/02 A2966 RMK AO2 SLP045 T01560017
Loading
Personal Weather Stations






























Interactive Weather Map New forecast layout! Learn more

10-Day Weather Forecast

Advertisements
Track Severe Weather on mobile